createdAt,value
2023-05-19T00:02:35.146Z,6.43
2023-05-19T00:05:46.310Z,8.02
2023-05-19T00:08:48.842Z,6.07
2023-05-19T00:11:51.616Z,6.32
2023-05-19T00:14:54.444Z,5.68
2023-05-19T00:20:59.752Z,5.40
2023-05-19T00:24:02.162Z,5.95
2023-05-19T00:27:04.919Z,6.53
2023-05-19T00:30:08.666Z,5.63
2023-05-19T00:33:11.134Z,7.03
2023-05-19T00:36:13.741Z,7.05
2023-05-19T00:39:16.388Z,5.68
2023-05-19T00:42:18.958Z,6.80
2023-05-19T00:45:21.427Z,6.50
2023-05-19T00:48:26.257Z,5.75
2023-05-19T00:51:29.759Z,4.97
2023-05-19T00:54:34.714Z,5.40
2023-05-19T00:57:37.809Z,5.10
2023-05-19T01:00:40.766Z,5.75
2023-05-19T01:06:58.089Z,6.55
2023-05-19T01:10:01.062Z,5.45
2023-05-19T01:13:04.492Z,5.80
2023-05-19T01:16:59.369Z,10.15
2023-05-19T01:20:11.088Z,6.07
2023-05-19T01:23:38.678Z,6.13
2023-05-19T01:27:14.129Z,5.88
2023-05-19T01:30:38.226Z,8.77
2023-05-19T01:33:41.477Z,6.80
2023-05-19T01:36:45.002Z,7.00
2023-05-19T01:39:48.581Z,7.63
2023-05-19T01:42:52.782Z,6.93
2023-05-19T01:45:55.764Z,6.18
2023-05-19T01:48:58.322Z,5.53
2023-05-19T01:52:00.892Z,6.07
2023-05-19T01:55:03.259Z,6.75
2023-05-19T01:58:23.548Z,7.55
2023-05-19T02:01:36.046Z,6.10
2023-05-19T02:04:45.208Z,6.25
2023-05-19T02:07:53.082Z,6.03
2023-05-19T02:11:03.364Z,6.45
2023-05-19T02:14:27.043Z,6.30
2023-05-19T02:17:29.697Z,5.75
2023-05-19T02:20:32.559Z,7.65
2023-05-19T02:23:35.421Z,8.05
2023-05-19T02:26:38.080Z,7.13
2023-05-19T02:29:40.527Z,7.07
2023-05-19T02:32:47.021Z,8.20
2023-05-19T02:35:49.665Z,7.95
2023-05-19T02:38:52.455Z,8.23
2023-05-19T02:41:55.103Z,6.30
2023-05-19T02:44:57.556Z,8.20
2023-05-19T02:48:00.123Z,7.38
2023-05-19T02:51:02.539Z,7.35
2023-05-19T02:54:05.325Z,6.97
2023-05-19T02:57:10.290Z,7.47
2023-05-19T03:00:13.291Z,6.63
2023-05-19T03:03:16.123Z,8.35
2023-05-19T03:06:19.001Z,6.78
2023-05-19T03:09:21.598Z,7.40
2023-05-19T03:12:24.716Z,7.43
2023-05-19T03:15:27.353Z,7.50
2023-05-19T03:18:29.968Z,7.45
2023-05-19T03:21:34.734Z,7.55
2023-05-19T03:24:37.348Z,8.68
2023-05-19T03:27:39.898Z,12.05
2023-05-19T03:30:42.423Z,9.65
2023-05-19T03:33:49.622Z,9.05
2023-05-19T03:36:52.016Z,9.18
2023-05-19T03:39:57.557Z,10.18
2023-05-19T03:43:01.159Z,8.00
2023-05-19T03:46:03.820Z,9.40
2023-05-19T03:49:38.466Z,8.68
2023-05-19T03:52:53.748Z,10.15
2023-05-19T03:56:14.109Z,9.55
2023-05-19T03:59:16.858Z,9.48
2023-05-19T04:02:19.462Z,9.80
2023-05-19T04:05:23.725Z,10.15
2023-05-19T04:08:26.322Z,8.55
2023-05-19T04:11:31.104Z,8.32
2023-05-19T04:14:33.980Z,7.70
2023-05-19T04:17:36.461Z,8.40
2023-05-19T04:20:39.527Z,10.20
2023-05-19T04:23:44.317Z,8.30
2023-05-19T04:26:47.439Z,7.93
2023-05-19T04:29:52.989Z,10.07
2023-05-19T04:32:58.208Z,13.02
2023-05-19T04:36:08.572Z,12.07
2023-05-19T04:39:12.407Z,9.32
2023-05-19T04:42:19.520Z,10.13
2023-05-19T04:45:25.918Z,8.98
2023-05-19T04:48:31.101Z,9.05
2023-05-19T04:54:38.636Z,9.20
2023-05-19T04:57:42.449Z,11.88
2023-05-19T05:00:45.556Z,9.48
2023-05-19T05:06:51.497Z,18.15
2023-05-19T05:09:54.732Z,10.50
2023-05-19T05:12:57.741Z,10.88
2023-05-19T05:16:00.817Z,11.57
2023-05-19T05:19:04.462Z,11.63
2023-05-19T05:22:08.672Z,12.10
2023-05-19T05:25:16.365Z,12.38
2023-05-19T05:28:19.379Z,12.02
2023-05-19T05:31:23.054Z,13.05
2023-05-19T05:34:25.845Z,13.98
2023-05-19T05:37:28.398Z,14.10
2023-05-19T05:43:33.688Z,13.15
2023-05-19T05:46:39.177Z,13.73
2023-05-19T05:49:42.271Z,14.73
2023-05-19T05:52:49.364Z,15.07
2023-05-19T05:55:53.680Z,17.67
2023-05-19T05:58:59.191Z,14.70
2023-05-19T06:02:01.979Z,18.50
2023-05-19T06:05:05.935Z,14.95
2023-05-19T06:08:08.857Z,16.98
2023-05-19T06:14:16.379Z,14.75
2023-05-19T06:17:39.423Z,14.57
2023-05-19T06:23:44.923Z,17.52
2023-05-19T06:26:47.950Z,18.58
2023-05-19T06:29:52.305Z,18.25
2023-05-19T06:32:55.667Z,20.60
2023-05-19T06:35:59.492Z,17.17
2023-05-19T06:39:04.086Z,18.17
2023-05-19T06:42:08.073Z,17.67
2023-05-19T06:45:30.869Z,18.33
2023-05-19T06:48:37.474Z,17.80
2023-05-19T06:51:40.322Z,20.33
2023-05-19T06:54:42.885Z,16.55
2023-05-19T06:57:46.631Z,16.27
2023-05-19T07:00:50.761Z,16.23
2023-05-19T07:03:53.752Z,23.40
2023-05-19T07:06:57.643Z,16.92
2023-05-19T07:10:02.546Z,15.85
2023-05-19T07:13:08.366Z,19.73
2023-05-19T07:16:12.345Z,19.13
2023-05-19T07:19:15.329Z,15.30
2023-05-19T07:22:20.879Z,16.48
2023-05-19T07:25:24.011Z,13.60
2023-05-19T07:28:26.616Z,13.10
2023-05-19T07:31:29.470Z,13.35
2023-05-19T07:34:32.238Z,13.85
2023-05-19T07:37:34.879Z,14.20
2023-05-19T07:40:37.443Z,13.60
2023-05-19T07:43:40.181Z,14.55
2023-05-19T07:46:42.887Z,14.10
2023-05-19T07:49:45.755Z,14.20
2023-05-19T07:52:51.820Z,12.48
2023-05-19T07:55:55.871Z,13.88
2023-05-19T07:58:59.523Z,15.30
2023-05-19T08:02:02.110Z,12.70
2023-05-19T08:05:04.994Z,10.15
2023-05-19T08:08:07.566Z,9.52
2023-05-19T08:11:10.525Z,7.53
2023-05-19T08:14:14.580Z,9.32
2023-05-19T08:17:17.311Z,8.27
2023-05-19T08:20:20.575Z,9.00
2023-05-19T08:23:23.519Z,8.57
2023-05-19T08:29:33.798Z,8.93
2023-05-19T08:32:39.138Z,8.82
2023-05-19T08:35:41.596Z,10.77
2023-05-19T08:38:44.233Z,10.95
2023-05-19T08:44:50.423Z,8.88
2023-05-19T08:47:52.983Z,22.42
2023-05-19T08:51:22.345Z,10.35
2023-05-19T08:54:26.734Z,12.20
2023-05-19T08:57:29.378Z,9.77
2023-05-19T09:00:32.582Z,11.82
2023-05-19T09:03:42.455Z,9.65
2023-05-19T09:06:45.709Z,10.80
2023-05-19T09:09:48.498Z,8.73
2023-05-19T09:12:52.293Z,9.23
2023-05-19T09:15:54.856Z,10.20
2023-05-19T09:18:57.801Z,8.88
2023-05-19T09:22:03.965Z,8.95
2023-05-19T09:25:06.760Z,9.30
2023-05-19T09:28:10.581Z,9.07
2023-05-19T09:31:15.134Z,9.85
2023-05-19T09:34:17.832Z,7.38
2023-05-19T09:37:24.238Z,6.90
2023-05-19T09:40:28.473Z,7.45
2023-05-19T09:43:32.877Z,8.88
2023-05-19T09:46:36.763Z,7.20
2023-05-19T09:49:40.085Z,8.63
2023-05-19T09:52:45.688Z,9.20
2023-05-19T09:55:48.767Z,10.27
2023-05-19T09:58:51.813Z,9.20
2023-05-19T10:01:58.856Z,8.88
2023-05-19T10:05:01.698Z,8.85
2023-05-19T10:08:07.437Z,7.70
2023-05-19T10:11:10.606Z,7.22
2023-05-19T10:14:13.374Z,6.25
2023-05-19T10:17:16.475Z,7.13
2023-05-19T10:20:24.939Z,7.53
2023-05-19T10:23:30.984Z,8.93
2023-05-19T10:26:33.997Z,6.20
2023-05-19T10:29:38.348Z,5.57
2023-05-19T10:32:44.894Z,6.65
2023-05-19T10:35:57.404Z,5.57
2023-05-19T10:39:08.167Z,5.85
2023-05-19T10:42:19.645Z,6.65
2023-05-19T10:45:26.047Z,7.97
2023-05-19T10:48:28.957Z,5.75
2023-05-19T10:51:32.570Z,5.53
2023-05-19T10:54:41.362Z,5.82
2023-05-19T10:57:59.142Z,5.82
2023-05-19T11:01:02.420Z,6.85
2023-05-19T11:04:14.207Z,5.97
2023-05-19T11:07:21.221Z,6.18
2023-05-19T11:10:24.351Z,4.93
2023-05-19T11:13:28.474Z,5.68
2023-05-19T11:16:33.994Z,7.53
2023-05-19T11:19:37.664Z,5.05
2023-05-19T11:22:42.749Z,5.10
2023-05-19T11:25:49.663Z,6.60
2023-05-19T11:28:52.260Z,6.07
2023-05-19T11:31:54.742Z,5.07
2023-05-19T11:34:58.195Z,6.93
2023-05-19T11:38:00.820Z,7.78
2023-05-19T11:41:03.628Z,6.15
2023-05-19T11:44:13.237Z,4.97
2023-05-19T11:47:17.130Z,5.32
2023-05-19T11:50:21.044Z,6.13
2023-05-19T11:53:23.515Z,5.22
2023-05-19T11:56:26.431Z,7.00
2023-05-19T11:59:35.996Z,5.78
2023-05-19T12:02:39.086Z,5.57
2023-05-19T12:05:47.852Z,6.78
2023-05-19T12:08:52.063Z,5.70
2023-05-19T12:11:55.081Z,5.22
2023-05-19T12:14:58.355Z,5.45
2023-05-19T12:18:01.823Z,5.97
2023-05-19T12:21:05.270Z,4.85
2023-05-19T12:24:07.943Z,4.78
2023-05-19T12:27:11.381Z,5.63
2023-05-19T12:30:14.056Z,6.13
2023-05-19T12:33:16.764Z,5.45
2023-05-19T12:36:19.622Z,5.88
2023-05-19T12:39:23.363Z,4.90
2023-05-19T12:42:32.461Z,4.85
2023-05-19T12:45:36.232Z,7.05
2023-05-19T12:48:44.031Z,6.32
2023-05-19T12:51:55.674Z,7.13
2023-05-19T12:55:08.446Z,4.38
2023-05-19T12:58:12.040Z,4.70
2023-05-19T13:01:18.266Z,5.57
2023-05-19T13:04:20.906Z,8.63
2023-05-19T13:07:24.310Z,4.75
2023-05-19T13:10:27.786Z,5.53
2023-05-19T13:13:30.442Z,6.82
2023-05-19T13:16:33.078Z,4.72
2023-05-19T13:19:35.714Z,6.85
2023-05-19T13:22:38.657Z,4.90
2023-05-19T13:25:41.662Z,5.32
2023-05-19T13:28:44.117Z,4.45
2023-05-19T13:31:47.107Z,5.55
2023-05-19T13:34:50.243Z,3.95
2023-05-19T13:37:52.741Z,4.97
2023-05-19T13:40:55.226Z,6.20
2023-05-19T13:43:59.293Z,5.43
2023-05-19T13:47:01.866Z,5.68
2023-05-19T13:50:04.973Z,6.13
2023-05-19T13:53:08.402Z,4.32
2023-05-19T13:56:11.180Z,6.00
2023-05-19T13:59:13.666Z,5.85
2023-05-19T14:02:18.390Z,5.57
2023-05-19T14:05:22.476Z,4.75
2023-05-19T14:08:25.019Z,4.20
2023-05-19T14:11:27.634Z,4.70
2023-05-19T14:14:30.050Z,4.38
2023-05-19T14:17:32.824Z,4.93
2023-05-19T14:20:36.100Z,4.43
2023-05-19T14:23:38.993Z,4.90
2023-05-19T14:26:41.925Z,4.47
2023-05-19T14:29:44.449Z,4.38
2023-05-19T14:32:47.016Z,4.30
2023-05-19T14:35:50.091Z,6.70
2023-05-19T14:38:52.729Z,5.18
2023-05-19T14:41:56.382Z,4.82
2023-05-19T14:44:59.082Z,6.03
2023-05-19T14:48:01.917Z,4.63
2023-05-19T14:51:05.028Z,4.75
2023-05-19T14:54:08.267Z,5.25
2023-05-19T14:57:11.021Z,4.80
2023-05-19T15:00:17.799Z,4.38
2023-05-19T15:03:37.202Z,4.78
2023-05-19T15:06:42.325Z,4.75
2023-05-19T15:09:57.217Z,6.15
2023-05-19T15:16:47.397Z,6.00
2023-05-19T15:19:49.842Z,5.22
2023-05-19T15:22:52.311Z,5.38
2023-05-19T15:25:55.643Z,5.85
2023-05-19T15:28:58.174Z,5.95
2023-05-19T15:32:01.126Z,22.08
2023-05-19T15:35:03.852Z,5.57
2023-05-19T15:38:07.000Z,5.78
2023-05-19T15:41:10.152Z,4.75
2023-05-19T15:44:12.925Z,5.88
2023-05-19T15:47:15.789Z,5.60
2023-05-19T15:50:18.456Z,4.75
2023-05-19T15:53:21.112Z,6.22
2023-05-19T15:56:26.108Z,5.70
2023-05-19T15:59:28.600Z,5.70
2023-05-19T16:02:32.364Z,7.65
2023-05-19T16:05:35.232Z,6.15
2023-05-19T16:08:38.422Z,6.25
2023-05-19T16:11:41.082Z,5.65
2023-05-19T16:14:43.744Z,8.25
2023-05-19T16:17:46.417Z,5.68
2023-05-19T16:20:51.345Z,4.35
2023-05-19T16:23:55.471Z,6.82
2023-05-19T16:26:58.068Z,4.85
2023-05-19T16:30:01.254Z,6.70
2023-05-19T16:33:04.462Z,7.78
2023-05-19T16:36:07.085Z,5.30
2023-05-19T16:39:09.813Z,6.25
2023-05-19T16:42:12.690Z,6.25
2023-05-19T16:45:18.090Z,4.97
2023-05-19T16:48:20.864Z,6.70
2023-05-19T16:51:23.418Z,5.53
2023-05-19T16:54:26.128Z,4.63
2023-05-19T16:57:29.019Z,6.55
2023-05-19T17:00:31.891Z,6.13
2023-05-19T17:03:35.907Z,5.85
2023-05-19T17:06:38.375Z,5.28
2023-05-19T17:12:43.253Z,5.10
2023-05-19T17:18:48.303Z,7.72
2023-05-19T17:21:51.761Z,5.03
2023-05-19T17:24:54.303Z,5.38
2023-05-19T17:27:57.348Z,6.57
2023-05-19T17:31:00.124Z,5.82
2023-05-19T17:34:02.697Z,7.47
2023-05-19T17:37:05.279Z,6.97
2023-05-19T17:40:08.341Z,5.35
2023-05-19T17:43:11.111Z,7.25
2023-05-19T17:46:13.739Z,6.40
2023-05-19T17:49:16.260Z,5.72
2023-05-19T17:52:22.377Z,6.97
2023-05-19T17:55:29.923Z,7.03
2023-05-19T17:58:32.862Z,6.43
2023-05-19T18:01:37.112Z,5.90
2023-05-19T18:04:40.116Z,7.57
2023-05-19T18:07:42.839Z,6.50
2023-05-19T18:10:46.257Z,8.38
2023-05-19T18:13:49.073Z,6.90
2023-05-19T18:16:51.683Z,6.20
2023-05-19T18:19:54.783Z,7.22
2023-05-19T18:22:57.826Z,7.47
2023-05-19T18:26:00.623Z,8.40
2023-05-19T18:29:04.971Z,6.63
2023-05-19T18:32:07.909Z,8.07
2023-05-19T18:35:10.823Z,9.90
2023-05-19T18:38:13.256Z,8.63
2023-05-19T18:41:16.459Z,11.70
2023-05-19T18:44:18.988Z,7.63
2023-05-19T18:47:23.107Z,7.13
2023-05-19T18:50:25.802Z,10.80
2023-05-19T18:53:28.375Z,8.60
2023-05-19T18:56:33.547Z,8.52
2023-05-19T18:59:36.464Z,8.93
2023-05-19T19:02:39.066Z,9.00
2023-05-19T19:08:44.479Z,7.18
2023-05-19T19:11:46.959Z,8.98
2023-05-19T19:14:49.411Z,7.45
2023-05-19T19:17:52.207Z,9.32
2023-05-19T19:20:56.790Z,10.52
2023-05-19T19:23:59.365Z,9.20
2023-05-19T19:27:01.907Z,9.80
2023-05-19T19:30:04.761Z,9.07
2023-05-19T19:33:07.268Z,9.50
2023-05-19T19:36:11.400Z,10.55
2023-05-19T19:39:14.356Z,11.18
2023-05-19T19:42:18.876Z,8.30
2023-05-19T19:45:21.470Z,11.68
2023-05-19T19:48:24.006Z,11.27
2023-05-19T19:51:27.404Z,10.82
2023-05-19T19:54:30.094Z,11.38
2023-05-19T19:57:34.366Z,9.40
2023-05-19T20:00:37.273Z,11.10
2023-05-19T20:03:39.908Z,10.32
2023-05-19T20:09:45.427Z,9.93
2023-05-19T20:12:48.025Z,10.18
2023-05-19T20:16:03.771Z,11.65
2023-05-19T20:19:07.805Z,10.25
2023-05-19T20:22:11.885Z,11.68
2023-05-19T20:25:14.855Z,12.18
2023-05-19T20:31:21.568Z,11.45
2023-05-19T20:34:24.181Z,12.23
2023-05-19T20:37:26.792Z,11.93
2023-05-19T20:40:30.329Z,11.43
2023-05-19T20:43:36.183Z,12.32
2023-05-19T20:46:38.754Z,11.23
2023-05-19T20:49:41.353Z,11.85
2023-05-19T20:52:45.866Z,12.95
2023-05-19T20:55:48.824Z,10.90
2023-05-19T20:58:51.368Z,12.27
2023-05-19T21:01:53.890Z,10.90
2023-05-19T21:04:56.694Z,13.18
2023-05-19T21:07:59.240Z,13.35
2023-05-19T21:11:01.676Z,18.77
2023-05-19T21:14:04.361Z,13.02
2023-05-19T21:17:08.418Z,12.32
2023-05-19T21:20:11.424Z,11.20
2023-05-19T21:23:13.885Z,10.73
2023-05-19T21:26:16.596Z,12.52
2023-05-19T21:32:21.843Z,11.95
2023-05-19T21:35:24.451Z,11.02
2023-05-19T21:41:31.210Z,10.65
2023-05-19T21:44:33.838Z,13.52
2023-05-19T21:47:36.513Z,11.00
2023-05-19T21:50:39.225Z,11.40
2023-05-19T21:53:41.890Z,11.90
2023-05-19T21:56:44.380Z,10.77
2023-05-19T21:59:46.887Z,10.63
2023-05-19T22:02:49.736Z,11.20
2023-05-19T22:05:53.118Z,11.55
2023-05-19T22:08:55.651Z,10.73
2023-05-19T22:11:58.219Z,10.40
2023-05-19T22:15:00.924Z,11.27
2023-05-19T22:18:03.426Z,14.25
2023-05-19T22:21:06.425Z,10.45
2023-05-19T22:24:08.884Z,12.25
2023-05-19T22:27:11.774Z,12.15
2023-05-19T22:30:14.247Z,10.10
2023-05-19T22:33:16.821Z,11.77
2023-05-19T22:36:19.335Z,9.50
2023-05-19T22:39:22.205Z,9.90
2023-05-19T22:42:24.683Z,10.25
2023-05-19T22:45:27.252Z,10.43
2023-05-19T22:48:29.910Z,10.52
2023-05-19T22:51:33.577Z,12.98
2023-05-19T22:54:36.372Z,12.15
2023-05-19T22:57:39.027Z,11.55
2023-05-19T23:00:41.502Z,11.48
2023-05-19T23:03:44.825Z,16.67
2023-05-19T23:06:47.965Z,10.85
2023-05-19T23:09:50.553Z,11.98
2023-05-19T23:12:53.159Z,10.65
2023-05-19T23:15:55.941Z,11.30
2023-05-19T23:22:01.150Z,10.80
2023-05-19T23:25:07.693Z,10.80
2023-05-19T23:28:11.369Z,11.55
2023-05-19T23:31:14.220Z,11.15
2023-05-19T23:34:16.697Z,13.93
2023-05-19T23:37:20.443Z,15.82
2023-05-19T23:40:22.928Z,13.32
2023-05-19T23:43:25.453Z,12.32
2023-05-19T23:46:28.100Z,13.32
2023-05-19T23:49:30.647Z,11.25
2023-05-19T23:52:33.203Z,12.75
2023-05-19T23:55:35.906Z,11.50
2023-05-19T23:58:38.677Z,16.13
